NCAR-RAP Real-Time Weather Data

Output produced by METARs form (24 January 2022  23:35 UTC)
found at http://weather.rap.ucar.edu/surface/
 
KLFK 242330Z AUTO 09005KT 7SM -RA BKN009 OVC012 09/09 A2990 RMK AO2 P0001 T00940094 $
KLFK 242308Z AUTO 11004KT 8SM -RA SCT007 OVC012 09/09 A2991 RMK AO2 P0001 T00940094 $
KLFK 242253Z AUTO 10005KT 8SM -RA BKN009 OVC055 09/09 A2990 RMK AO2 SLP124 P0004 T00940094 $
KLFK 242207Z AUTO 09005KT 5SM RA BR OVC005 09/09 A2990 RMK AO2 P0003 T00940094 $
KLFK 242153Z AUTO 10006KT 7SM -RA BKN004 OVC055 09/09 A2990 RMK AO2 SLP124 P0009 T00940094 $
KLFK 242134Z AUTO 12006KT 5SM RA BR BKN004 BKN047 OVC065 09/09 A2990 RMK AO2 P0008 T00940094 $
KLFK 242116Z AUTO 11005KT 4SM -RA BR FEW004 BKN044 OVC070 09/09 A2991 RMK AO2 P0006 T00940094 $
KLFK 242104Z AUTO 09004KT 2 1/2SM RA BR SCT003 BKN045 OVC065 09/09 A2991 RMK AO2 P0004 T00940094 $
KLFK 242053Z AUTO 00000KT 2SM +RA BR BKN003 BKN030 OVC043 09/09 A2992 RMK AO2 SLP130 P0012 60025 T00940094 56030 $
KLFK 241953Z AUTO 12004KT 3SM RA BR BKN004 OVC025 09/09 A2993 RMK AO2 SLP134 P0007 T00940094 $
KLFK 241913Z AUTO 00000KT 6SM -RA BR BKN004 OVC035 09/09 A2994 RMK AO2 P0001 T00940094 $
KLFK 241853Z AUTO 14003KT 6SM -RA BR FEW006 BKN035 OVC043 09/09 A2995 RMK AO2 SLP141 P0006 T00940094 $
KLFK 241753Z AUTO 24005KT 5SM -RA BR BKN041 OVC049 09/09 A3001 RMK AO2 SLP161 P0004 60005 T00890089 10106 20061 53003
KLFK 241653Z AUTO 21007KT 9SM -RA OVC043 10/06 A3001 RMK AO2 RAB22 SLP160 P0001 T01000056
KLFK 241553Z AUTO 13004KT 10SM FEW049 OVC060 10/04 A2998 RMK AO2 SLP151 T01000044
KLFK 241453Z AUTO 00000KT 10SM OVC050 08/03 A3000 RMK AO2 SLP157 T00830033 53001